»·PEaware :: N698SP KSBD-KEMT

N698SP :: KSBD-KEMT

FLIGHT INFORMATION

Flight Status: Arrived
Operator: Privately registered:
United States
More flights under this callsign
Pilot: Dominik G. (31997)
Aircraft: CESSNA 172 SKYHAWK
(C172)
More flights by this aircraft type
Origin: KSBD San Bernardino Intl
United States
Destination: KEMT El Monte
United States
More flights between these airports :: More routes between these airports
Route:
File this flight plan on PilotEdge
Remarks:
Altitude:
(Current/Filed)
4,500ft
Speed:
(Current/Filed)
104kts
Departed: 31-Dec-20 07:20 PM
Arrived: 31-Dec-20 07:46 PM
Distance/Time
Traveled:
40nm/0:25
Distance/Time
To Go:
Arrived

Flight Plot

Page will automatically refresh every two minutes.


Map Options




Map Legend


Flown Route
Filed Route
Departure Airport
Arrival Airport
Navaid (VOR, NDB)
Fix

Horizontal Profiles

Position Reports

Time Latitude Longitude Heading Altitude Ground
Speed
31-Dec-20 19:08 34.102166 -117.224730 94 1149ft 0kts
31-Dec-20 19:09 34.102166 -117.224730 94 1149ft 0kts
31-Dec-20 19:10 34.102166 -117.224730 94 1149ft 0kts
31-Dec-20 19:11 34.102166 -117.224730 94 1149ft 0kts
31-Dec-20 19:12 34.102166 -117.224730 94 1149ft 0kts
31-Dec-20 19:13 34.102166 -117.224730 94 1149ft 0kts
31-Dec-20 19:14 34.102165 -117.224719 97 1149ft 0kts
31-Dec-20 19:15 34.100777 -117.224461 159 1150ft 8kts
31-Dec-20 19:16 34.101213 -117.219913 150 1161ft 9kts
31-Dec-20 19:17 34.100838 -117.219772 161 1162ft 0kts
31-Dec-20 19:18 34.100830 -117.219768 161 1162ft 2kts
31-Dec-20 19:19 34.096299 -117.232382 251 1392ft 86kts
31-Dec-20 19:20 34.089883 -117.258190 255 2180ft 78kts
31-Dec-20 19:21 34.082572 -117.287466 253 2417ft 104kts
31-Dec-20 19:22 34.076338 -117.324103 276 2415ft 112kts
31-Dec-20 19:23 34.079874 -117.360790 275 2981ft 102kts
31-Dec-20 19:24 34.082229 -117.393749 275 3863ft 84kts
31-Dec-20 19:25 34.082200 -117.424134 275 4464ft 97kts
31-Dec-20 19:26 34.081109 -117.457208 275 4468ft 100kts
31-Dec-20 19:27 34.078875 -117.491300 275 4476ft 104kts
31-Dec-20 19:28 34.075637 -117.527128 275 4491ft 110kts
31-Dec-20 19:29 34.072193 -117.565337 276 4510ft 118kts
31-Dec-20 19:30 34.068981 -117.606036 276 4534ft 125kts
31-Dec-20 19:31 34.066302 -117.647633 276 4562ft 119kts
31-Dec-20 19:32 34.063975 -117.686737 275 4566ft 114kts
31-Dec-20 19:33 34.064361 -117.723769 282 4576ft 108kts
31-Dec-20 19:34 34.066003 -117.759818 282 4586ft 106kts
31-Dec-20 19:35 34.070076 -117.794130 292 4596ft 101kts
31-Dec-20 19:36 34.077730 -117.825947 297 4607ft 96kts
31-Dec-20 19:37 34.087506 -117.856036 298 4475ft 95kts
31-Dec-20 19:38 34.097180 -117.885160 298 4279ft 89kts
31-Dec-20 19:39 34.110253 -117.911886 334 3344ft 102kts
31-Dec-20 19:40 34.126575 -117.935980 278 2479ft 104kts
31-Dec-20 19:41 34.122666 -117.969691 246 1448ft 96kts
31-Dec-20 19:42 34.119793 -117.999180 269 1354ft 85kts
31-Dec-20 19:43 34.109940 -118.021336 197 1206ft 79kts
31-Dec-20 19:44 34.092400 -118.031222 206 389ft 63kts
31-Dec-20 19:45 34.085362 -118.034561 106 292ft 0kts
31-Dec-20 19:46 34.085850 -118.034232 21 293ft 12kts
31-Dec-20 19:47 34.085969 -118.033480 173 294ft 0kts
31-Dec-20 19:48 34.085969 -118.033480 173 294ft 0kts
31-Dec-20 19:49 34.085969 -118.033480 173 294ft 0kts
31-Dec-20 19:50 34.085969 -118.033480 173 294ft 0kts
31-Dec-20 19:51 34.085969 -118.033480 173 294ft 0kts
31-Dec-20 19:52 34.085969 -118.033480 173 294ft 0kts
31-Dec-20 19:53 34.085969 -118.033480 173 294ft 0kts
31-Dec-20 19:54 34.085969 -118.033480 173 294ft 0kts
31-Dec-20 19:55 34.085969 -118.033480 173 294ft 0kts
31-Dec-20 19:56 34.085969 -118.033480 173 294ft 0kts
31-Dec-20 19:57 34.085969 -118.033480 173 294ft 0kts
31-Dec-20 19:58 34.085969 -118.033480 173 294ft 0kts
31-Dec-20 19:59 34.085969 -118.033480 173 294ft 0kts

Navigation Log

Ident Type
Flight plan parsing failed, navigation log unavailable